sensor_id;sensor_type;location;lat;lon;timestamp;P1;durP1;ratioP1;P2;durP2;ratioP2
48859;SDS011;34679;51.436;-2.518;2023-04-24T00:00:09;14.93;;;11.98;;
48859;SDS011;34679;51.436;-2.518;2023-04-24T00:02:35;15.23;;;11.50;;
48859;SDS011;34679;51.436;-2.518;2023-04-24T00:05:05;16.52;;;10.75;;
48859;SDS011;34679;51.436;-2.518;2023-04-24T00:07:31;15.95;;;11.05;;
48859;SDS011;34679;51.436;-2.518;2023-04-24T00:09:57;21.00;;;11.35;;
48859;SDS011;34679;51.436;-2.518;2023-04-24T00:12:23;18.45;;;11.23;;
48859;SDS011;34679;51.436;-2.518;2023-04-24T00:14:49;17.35;;;11.63;;
48859;SDS011;34679;51.436;-2.518;2023-04-24T00:17:15;13.75;;;10.63;;
48859;SDS011;34679;51.436;-2.518;2023-04-24T00:19:44;15.20;;;11.95;;
48859;SDS011;34679;51.436;-2.518;2023-04-24T00:22:10;17.10;;;11.02;;
48859;SDS011;34679;51.436;-2.518;2023-04-24T00:24:38;15.57;;;11.25;;
48859;SDS011;34679;51.436;-2.518;2023-04-24T00:27:04;12.43;;;10.98;;
48859;SDS011;34679;51.436;-2.518;2023-04-24T00:29:29;13.23;;;10.52;;
48859;SDS011;34679;51.436;-2.518;2023-04-24T00:31:55;13.95;;;10.05;;
48859;SDS011;34679;51.436;-2.518;2023-04-24T00:34:21;14.70;;;10.82;;
48859;SDS011;34679;51.436;-2.518;2023-04-24T00:36:47;17.15;;;9.52;;
48859;SDS011;34679;51.436;-2.518;2023-04-24T00:39:15;11.85;;;9.15;;
48859;SDS011;34679;51.436;-2.518;2023-04-24T00:41:41;17.65;;;9.45;;
48859;SDS011;34679;51.436;-2.518;2023-04-24T00:44:06;14.40;;;9.30;;
48859;SDS011;34679;51.436;-2.518;2023-04-24T00:46:32;11.65;;;9.25;;
48859;SDS011;34679;51.436;-2.518;2023-04-24T00:48:58;9.60;;;8.70;;
48859;SDS011;34679;51.436;-2.518;2023-04-24T00:51:24;12.10;;;8.35;;
48859;SDS011;34679;51.436;-2.518;2023-04-24T00:53:50;10.43;;;8.50;;
48859;SDS011;34679;51.436;-2.518;2023-04-24T00:56:17;18.33;;;8.43;;
48859;SDS011;34679;51.436;-2.518;2023-04-24T00:58:43;11.20;;;8.50;;
48859;SDS011;34679;51.436;-2.518;2023-04-24T01:01:09;10.82;;;8.93;;
48859;SDS011;34679;51.436;-2.518;2023-04-24T01:03:36;12.77;;;9.52;;
48859;SDS011;34679;51.436;-2.518;2023-04-24T01:06:03;16.73;;;9.30;;
48859;SDS011;34679;51.436;-2.518;2023-04-24T01:08:30;12.75;;;8.75;;
48859;SDS011;34679;51.436;-2.518;2023-04-24T01:10:57;11.07;;;8.40;;
48859;SDS011;34679;51.436;-2.518;2023-04-24T01:13:23;9.23;;;7.55;;
48859;SDS011;34679;51.436;-2.518;2023-04-24T01:15:49;10.65;;;8.05;;
48859;SDS011;34679;51.436;-2.518;2023-04-24T01:18:15;9.13;;;7.10;;
48859;SDS011;34679;51.436;-2.518;2023-04-24T01:20:41;14.10;;;7.03;;
48859;SDS011;34679;51.436;-2.518;2023-04-24T01:23:09;13.35;;;7.65;;
48859;SDS011;34679;51.436;-2.518;2023-04-24T01:25:36;12.35;;;7.43;;
48859;SDS011;34679;51.436;-2.518;2023-04-24T01:28:02;9.52;;;7.78;;
48859;SDS011;34679;51.436;-2.518;2023-04-24T01:30:28;10.07;;;7.63;;
48859;SDS011;34679;51.436;-2.518;2023-04-24T01:32:55;8.90;;;7.50;;
48859;SDS011;34679;51.436;-2.518;2023-04-24T01:35:20;9.35;;;8.13;;
48859;SDS011;34679;51.436;-2.518;2023-04-24T01:37:46;13.80;;;7.97;;
48859;SDS011;34679;51.436;-2.518;2023-04-24T01:40:12;13.15;;;8.90;;
48859;SDS011;34679;51.436;-2.518;2023-04-24T01:42:37;19.05;;;10.30;;
48859;SDS011;34679;51.436;-2.518;2023-04-24T01:45:05;12.77;;;9.60;;
48859;SDS011;34679;51.436;-2.518;2023-04-24T01:47:33;15.32;;;9.40;;
48859;SDS011;34679;51.436;-2.518;2023-04-24T01:49:58;12.32;;;7.43;;
48859;SDS011;34679;51.436;-2.518;2023-04-24T01:52:24;14.15;;;7.95;;
48859;SDS011;34679;51.436;-2.518;2023-04-24T01:54:50;14.25;;;8.10;;
48859;SDS011;34679;51.436;-2.518;2023-04-24T01:57:17;12.80;;;8.30;;
48859;SDS011;34679;51.436;-2.518;2023-04-24T01:59:43;15.38;;;9.05;;
48859;SDS011;34679;51.436;-2.518;2023-04-24T02:02:09;11.70;;;7.80;;
48859;SDS011;34679;51.436;-2.518;2023-04-24T02:04:34;12.70;;;9.32;;
48859;SDS011;34679;51.436;-2.518;2023-04-24T02:07:00;17.42;;;9.30;;
48859;SDS011;34679;51.436;-2.518;2023-04-24T02:09:26;18.35;;;10.75;;
48859;SDS011;34679;51.436;-2.518;2023-04-24T02:11:51;17.80;;;10.73;;
48859;SDS011;34679;51.436;-2.518;2023-04-24T02:14:17;20.00;;;11.32;;
48859;SDS011;34679;51.436;-2.518;2023-04-24T02:16:43;15.82;;;10.57;;
48859;SDS011;34679;51.436;-2.518;2023-04-24T02:19:09;20.17;;;10.88;;
48859;SDS011;34679;51.436;-2.518;2023-04-24T02:21:34;17.42;;;11.57;;
48859;SDS011;34679;51.436;-2.518;2023-04-24T02:24:00;16.27;;;11.00;;
48859;SDS011;34679;51.436;-2.518;2023-04-24T02:26:26;24.42;;;12.18;;
48859;SDS011;34679;51.436;-2.518;2023-04-24T02:28:52;15.25;;;10.45;;
48859;SDS011;34679;51.436;-2.518;2023-04-24T02:31:17;17.17;;;12.32;;
48859;SDS011;34679;51.436;-2.518;2023-04-24T02:33:43;14.15;;;10.98;;
48859;SDS011;34679;51.436;-2.518;2023-04-24T02:36:09;17.00;;;12.23;;
48859;SDS011;34679;51.436;-2.518;2023-04-24T02:38:34;16.17;;;11.77;;
48859;SDS011;34679;51.436;-2.518;2023-04-24T02:41:00;20.70;;;12.40;;
48859;SDS011;34679;51.436;-2.518;2023-04-24T02:43:27;15.25;;;11.60;;
48859;SDS011;34679;51.436;-2.518;2023-04-24T02:45:53;18.42;;;11.82;;
48859;SDS011;34679;51.436;-2.518;2023-04-24T02:48:18;17.13;;;11.60;;
48859;SDS011;34679;51.436;-2.518;2023-04-24T02:50:46;16.95;;;12.10;;
48859;SDS011;34679;51.436;-2.518;2023-04-24T02:53:11;21.70;;;13.07;;
48859;SDS011;34679;51.436;-2.518;2023-04-24T02:55:37;17.45;;;12.40;;
48859;SDS011;34679;51.436;-2.518;2023-04-24T02:58:03;21.42;;;12.52;;
48859;SDS011;34679;51.436;-2.518;2023-04-24T03:00:28;18.38;;;14.02;;
48859;SDS011;34679;51.436;-2.518;2023-04-24T03:02:54;17.95;;;12.85;;
48859;SDS011;34679;51.436;-2.518;2023-04-24T03:05:20;20.25;;;12.85;;
48859;SDS011;34679;51.436;-2.518;2023-04-24T03:07:46;18.48;;;13.32;;
48859;SDS011;34679;51.436;-2.518;2023-04-24T03:10:12;19.17;;;13.32;;
48859;SDS011;34679;51.436;-2.518;2023-04-24T03:12:37;16.60;;;12.52;;
48859;SDS011;34679;51.436;-2.518;2023-04-24T03:15:03;22.05;;;13.18;;
48859;SDS011;34679;51.436;-2.518;2023-04-24T03:17:29;21.15;;;13.23;;
48859;SDS011;34679;51.436;-2.518;2023-04-24T03:19:55;21.95;;;11.90;;
48859;SDS011;34679;51.436;-2.518;2023-04-24T03:22:21;23.20;;;13.02;;
48859;SDS011;34679;51.436;-2.518;2023-04-24T03:24:46;18.73;;;13.07;;
48859;SDS011;34679;51.436;-2.518;2023-04-24T03:27:13;19.10;;;11.52;;
48859;SDS011;34679;51.436;-2.518;2023-04-24T03:29:39;20.48;;;11.05;;
48859;SDS011;34679;51.436;-2.518;2023-04-24T03:32:05;19.58;;;12.13;;
48859;SDS011;34679;51.436;-2.518;2023-04-24T03:34:30;13.65;;;10.85;;
48859;SDS011;34679;51.436;-2.518;2023-04-24T03:36:56;17.15;;;10.90;;
48859;SDS011;34679;51.436;-2.518;2023-04-24T03:39:21;16.75;;;10.82;;
48859;SDS011;34679;51.436;-2.518;2023-04-24T03:41:47;17.25;;;11.40;;
48859;SDS011;34679;51.436;-2.518;2023-04-24T03:44:13;15.57;;;11.00;;
48859;SDS011;34679;51.436;-2.518;2023-04-24T03:46:38;17.13;;;11.05;;
48859;SDS011;34679;51.436;-2.518;2023-04-24T03:49:04;15.25;;;11.13;;
48859;SDS011;34679;51.436;-2.518;2023-04-24T03:51:30;15.55;;;11.52;;
48859;SDS011;34679;51.436;-2.518;2023-04-24T03:53:56;18.50;;;11.05;;
48859;SDS011;34679;51.436;-2.518;2023-04-24T03:56:22;12.27;;;10.93;;
48859;SDS011;34679;51.436;-2.518;2023-04-24T03:58:47;19.83;;;11.80;;
48859;SDS011;34679;51.436;-2.518;2023-04-24T04:01:13;13.40;;;10.88;;
48859;SDS011;34679;51.436;-2.518;2023-04-24T04:03:40;17.10;;;11.60;;
48859;SDS011;34679;51.436;-2.518;2023-04-24T04:06:06;15.95;;;11.35;;
48859;SDS011;34679;51.436;-2.518;2023-04-24T04:08:32;19.20;;;12.60;;
48859;SDS011;34679;51.436;-2.518;2023-04-24T04:10:58;15.90;;;10.38;;
48859;SDS011;34679;51.436;-2.518;2023-04-24T04:13:23;15.55;;;11.07;;
48859;SDS011;34679;51.436;-2.518;2023-04-24T04:15:49;14.80;;;10.55;;
48859;SDS011;34679;51.436;-2.518;2023-04-24T04:18:15;15.23;;;10.73;;
48859;SDS011;34679;51.436;-2.518;2023-04-24T04:20:41;16.98;;;11.27;;
48859;SDS011;34679;51.436;-2.518;2023-04-24T04:23:06;14.15;;;11.55;;
48859;SDS011;34679;51.436;-2.518;2023-04-24T04:25:32;18.85;;;11.57;;
48859;SDS011;34679;51.436;-2.518;2023-04-24T04:27:58;20.20;;;12.18;;
48859;SDS011;34679;51.436;-2.518;2023-04-24T04:30:24;15.23;;;11.93;;
48859;SDS011;34679;51.436;-2.518;2023-04-24T04:32:50;19.95;;;12.55;;
48859;SDS011;34679;51.436;-2.518;2023-04-24T04:35:16;18.33;;;11.95;;
48859;SDS011;34679;51.436;-2.518;2023-04-24T04:37:42;16.38;;;11.75;;
48859;SDS011;34679;51.436;-2.518;2023-04-24T04:40:08;15.25;;;10.85;;
48859;SDS011;34679;51.436;-2.518;2023-04-24T04:42:37;19.60;;;10.85;;
48859;SDS011;34679;51.436;-2.518;2023-04-24T04:45:07;18.75;;;11.57;;
48859;SDS011;34679;51.436;-2.518;2023-04-24T04:47:36;14.95;;;11.38;;
48859;SDS011;34679;51.436;-2.518;2023-04-24T04:50:02;22.17;;;12.15;;
48859;SDS011;34679;51.436;-2.518;2023-04-24T04:52:30;18.83;;;12.02;;
48859;SDS011;34679;51.436;-2.518;2023-04-24T04:54:56;20.65;;;12.75;;
48859;SDS011;34679;51.436;-2.518;2023-04-24T04:57:21;19.17;;;11.88;;
48859;SDS011;34679;51.436;-2.518;2023-04-24T04:59:47;21.73;;;11.93;;
48859;SDS011;34679;51.436;-2.518;2023-04-24T05:02:13;18.70;;;12.00;;
48859;SDS011;34679;51.436;-2.518;2023-04-24T05:04:38;15.27;;;12.48;;
48859;SDS011;34679;51.436;-2.518;2023-04-24T05:07:04;14.85;;;11.77;;
48859;SDS011;34679;51.436;-2.518;2023-04-24T05:09:31;21.45;;;13.25;;
48859;SDS011;34679;51.436;-2.518;2023-04-24T05:11:57;18.17;;;12.77;;
48859;SDS011;34679;51.436;-2.518;2023-04-24T05:14:22;19.10;;;13.40;;
48859;SDS011;34679;51.436;-2.518;2023-04-24T05:16:48;18.15;;;12.73;;
48859;SDS011;34679;51.436;-2.518;2023-04-24T05:19:14;20.65;;;13.20;;
48859;SDS011;34679;51.436;-2.518;2023-04-24T05:21:42;20.77;;;12.30;;
48859;SDS011;34679;51.436;-2.518;2023-04-24T05:24:08;24.85;;;13.85;;
48859;SDS011;34679;51.436;-2.518;2023-04-24T05:26:34;21.23;;;13.05;;
48859;SDS011;34679;51.436;-2.518;2023-04-24T05:29:00;23.52;;;13.13;;
48859;SDS011;34679;51.436;-2.518;2023-04-24T05:31:27;16.58;;;12.13;;
48859;SDS011;34679;51.436;-2.518;2023-04-24T05:33:53;15.85;;;12.52;;
48859;SDS011;34679;51.436;-2.518;2023-04-24T05:36:18;18.55;;;11.75;;
48859;SDS011;34679;51.436;-2.518;2023-04-24T05:38:44;19.75;;;12.23;;
48859;SDS011;34679;51.436;-2.518;2023-04-24T05:41:10;19.65;;;11.77;;
48859;SDS011;34679;51.436;-2.518;2023-04-24T05:43:35;14.07;;;11.13;;
48859;SDS011;34679;51.436;-2.518;2023-04-24T05:46:01;12.65;;;10.75;;
48859;SDS011;34679;51.436;-2.518;2023-04-24T05:48:27;13.23;;;9.35;;
48859;SDS011;34679;51.436;-2.518;2023-04-24T05:50:53;14.45;;;9.93;;
48859;SDS011;34679;51.436;-2.518;2023-04-24T05:53:18;12.82;;;9.20;;
48859;SDS011;34679;51.436;-2.518;2023-04-24T05:55:44;16.98;;;9.23;;
48859;SDS011;34679;51.436;-2.518;2023-04-24T05:58:11;9.55;;;7.63;;
48859;SDS011;34679;51.436;-2.518;2023-04-24T06:00:37;11.82;;;8.73;;
48859;SDS011;34679;51.436;-2.518;2023-04-24T06:03:04;11.27;;;8.15;;
48859;SDS011;34679;51.436;-2.518;2023-04-24T06:05:30;8.68;;;7.30;;
48859;SDS011;34679;51.436;-2.518;2023-04-24T06:07:56;7.78;;;6.97;;
48859;SDS011;34679;51.436;-2.518;2023-04-24T06:10:22;10.82;;;6.65;;
48859;SDS011;34679;51.436;-2.518;2023-04-24T06:12:48;7.65;;;6.90;;
48859;SDS011;34679;51.436;-2.518;2023-04-24T06:15:13;7.18;;;6.43;;
48859;SDS011;34679;51.436;-2.518;2023-04-24T06:17:39;7.22;;;6.45;;
48859;SDS011;34679;51.436;-2.518;2023-04-24T06:20:05;9.52;;;6.78;;
48859;SDS011;34679;51.436;-2.518;2023-04-24T06:22:34;7.10;;;6.53;;
48859;SDS011;34679;51.436;-2.518;2023-04-24T06:25:00;10.02;;;6.70;;
48859;SDS011;34679;51.436;-2.518;2023-04-24T06:27:26;7.88;;;5.80;;
48859;SDS011;34679;51.436;-2.518;2023-04-24T06:29:52;7.53;;;5.60;;
48859;SDS011;34679;51.436;-2.518;2023-04-24T06:32:23;6.43;;;5.82;;
48859;SDS011;34679;51.436;-2.518;2023-04-24T06:34:50;8.63;;;5.68;;
48859;SDS011;34679;51.436;-2.518;2023-04-24T06:37:16;7.93;;;5.95;;
48859;SDS011;34679;51.436;-2.518;2023-04-24T06:39:43;7.68;;;5.93;;
48859;SDS011;34679;51.436;-2.518;2023-04-24T06:42:08;8.30;;;6.63;;
48859;SDS011;34679;51.436;-2.518;2023-04-24T06:44:34;10.98;;;6.63;;
48859;SDS011;34679;51.436;-2.518;2023-04-24T06:47:05;10.80;;;6.57;;
48859;SDS011;34679;51.436;-2.518;2023-04-24T06:49:38;8.95;;;6.78;;
48859;SDS011;34679;51.436;-2.518;2023-04-24T06:52:03;7.45;;;6.45;;
48859;SDS011;34679;51.436;-2.518;2023-04-24T06:54:30;8.63;;;7.72;;
48859;SDS011;34679;51.436;-2.518;2023-04-24T06:56:56;9.15;;;6.65;;
48859;SDS011;34679;51.436;-2.518;2023-04-24T06:59:25;8.20;;;6.88;;
48859;SDS011;34679;51.436;-2.518;2023-04-24T07:01:51;10.30;;;7.25;;
48859;SDS011;34679;51.436;-2.518;2023-04-24T07:04:17;17.80;;;8.18;;
48859;SDS011;34679;51.436;-2.518;2023-04-24T07:06:46;12.82;;;7.85;;
48859;SDS011;34679;51.436;-2.518;2023-04-24T07:09:14;9.13;;;7.65;;
48859;SDS011;34679;51.436;-2.518;2023-04-24T07:11:41;10.52;;;8.32;;
48859;SDS011;34679;51.436;-2.518;2023-04-24T07:14:07;10.75;;;8.00;;
48859;SDS011;34679;51.436;-2.518;2023-04-24T07:16:33;16.15;;;8.32;;
48859;SDS011;34679;51.436;-2.518;2023-04-24T07:18:58;12.27;;;7.85;;
48859;SDS011;34679;51.436;-2.518;2023-04-24T07:21:25;10.57;;;7.85;;
48859;SDS011;34679;51.436;-2.518;2023-04-24T07:23:50;14.25;;;8.90;;
48859;SDS011;34679;51.436;-2.518;2023-04-24T07:26:16;16.27;;;8.00;;
48859;SDS011;34679;51.436;-2.518;2023-04-24T07:28:42;8.95;;;7.90;;
48859;SDS011;34679;51.436;-2.518;2023-04-24T07:31:08;8.35;;;7.30;;
48859;SDS011;34679;51.436;-2.518;2023-04-24T07:33:34;13.88;;;7.65;;
48859;SDS011;34679;51.436;-2.518;2023-04-24T07:36:01;8.90;;;7.13;;
48859;SDS011;34679;51.436;-2.518;2023-04-24T07:38:29;10.35;;;7.25;;
48859;SDS011;34679;51.436;-2.518;2023-04-24T07:40:55;10.43;;;7.95;;
48859;SDS011;34679;51.436;-2.518;2023-04-24T07:43:20;11.80;;;7.97;;
48859;SDS011;34679;51.436;-2.518;2023-04-24T07:45:48;9.98;;;8.15;;
48859;SDS011;34679;51.436;-2.518;2023-04-24T07:48:15;9.52;;;8.52;;
48859;SDS011;34679;51.436;-2.518;2023-04-24T07:50:42;17.10;;;8.48;;
48859;SDS011;34679;51.436;-2.518;2023-04-24T07:53:08;9.63;;;7.63;;
48859;SDS011;34679;51.436;-2.518;2023-04-24T07:55:35;10.98;;;8.05;;
48859;SDS011;34679;51.436;-2.518;2023-04-24T07:58:00;8.45;;;7.38;;
48859;SDS011;34679;51.436;-2.518;2023-04-24T08:00:26;8.88;;;7.60;;
48859;SDS011;34679;51.436;-2.518;2023-04-24T08:02:52;8.68;;;6.88;;
48859;SDS011;34679;51.436;-2.518;2023-04-24T08:05:17;6.68;;;5.53;;
48859;SDS011;34679;51.436;-2.518;2023-04-24T08:07:43;7.53;;;4.90;;
48859;SDS011;34679;51.436;-2.518;2023-04-24T08:10:11;7.65;;;4.80;;
48859;SDS011;34679;51.436;-2.518;2023-04-24T08:12:37;5.32;;;4.82;;
48859;SDS011;34679;51.436;-2.518;2023-04-24T08:15:03;8.95;;;5.78;;
48859;SDS011;34679;51.436;-2.518;2023-04-24T08:17:29;8.77;;;5.38;;
48859;SDS011;34679;51.436;-2.518;2023-04-24T08:19:55;5.43;;;4.00;;
48859;SDS011;34679;51.436;-2.518;2023-04-24T08:22:26;5.07;;;4.47;;
48859;SDS011;34679;51.436;-2.518;2023-04-24T08:24:53;5.13;;;4.63;;
48859;SDS011;34679;51.436;-2.518;2023-04-24T08:27:19;5.82;;;4.13;;
48859;SDS011;34679;51.436;-2.518;2023-04-24T08:29:45;5.63;;;4.38;;
48859;SDS011;34679;51.436;-2.518;2023-04-24T08:32:11;4.90;;;3.78;;
48859;SDS011;34679;51.436;-2.518;2023-04-24T08:34:36;8.05;;;4.80;;
48859;SDS011;34679;51.436;-2.518;2023-04-24T08:37:02;6.38;;;5.35;;
48859;SDS011;34679;51.436;-2.518;2023-04-24T08:39:28;9.88;;;5.50;;
48859;SDS011;34679;51.436;-2.518;2023-04-24T08:41:55;7.90;;;5.25;;
48859;SDS011;34679;51.436;-2.518;2023-04-24T08:44:21;5.63;;;5.03;;
48859;SDS011;34679;51.436;-2.518;2023-04-24T08:46:49;7.20;;;5.80;;
48859;SDS011;34679;51.436;-2.518;2023-04-24T08:49:16;10.40;;;5.10;;
48859;SDS011;34679;51.436;-2.518;2023-04-24T08:51:43;10.50;;;5.97;;
48859;SDS011;34679;51.436;-2.518;2023-04-24T08:54:10;10.30;;;6.40;;
48859;SDS011;34679;51.436;-2.518;2023-04-24T08:56:37;8.88;;;6.38;;
48859;SDS011;34679;51.436;-2.518;2023-04-24T08:59:05;9.70;;;6.53;;
48859;SDS011;34679;51.436;-2.518;2023-04-24T09:01:32;8.57;;;6.40;;
48859;SDS011;34679;51.436;-2.518;2023-04-24T09:04:03;11.75;;;6.10;;
48859;SDS011;34679;51.436;-2.518;2023-04-24T09:06:30;8.57;;;6.38;;
48859;SDS011;34679;51.436;-2.518;2023-04-24T09:08:57;8.70;;;6.05;;
48859;SDS011;34679;51.436;-2.518;2023-04-24T09:11:29;8.98;;;6.32;;
48859;SDS011;34679;51.436;-2.518;2023-04-24T09:13:56;10.50;;;6.68;;
48859;SDS011;34679;51.436;-2.518;2023-04-24T09:16:23;10.15;;;7.00;;
48859;SDS011;34679;51.436;-2.518;2023-04-24T09:18:50;7.60;;;6.50;;
48859;SDS011;34679;51.436;-2.518;2023-04-24T09:21:17;7.35;;;6.50;;
48859;SDS011;34679;51.436;-2.518;2023-04-24T09:23:45;7.70;;;6.40;;
48859;SDS011;34679;51.436;-2.518;2023-04-24T09:26:10;9.50;;;6.43;;
48859;SDS011;34679;51.436;-2.518;2023-04-24T09:28:37;8.70;;;5.50;;
48859;SDS011;34679;51.436;-2.518;2023-04-24T09:31:05;7.40;;;6.28;;
48859;SDS011;34679;51.436;-2.518;2023-04-24T09:33:31;8.90;;;6.70;;
48859;SDS011;34679;51.436;-2.518;2023-04-24T09:35:57;14.73;;;6.65;;
48859;SDS011;34679;51.436;-2.518;2023-04-24T09:38:36;9.57;;;6.18;;
48859;SDS011;34679;51.436;-2.518;2023-04-24T09:41:04;16.65;;;7.07;;
48859;SDS011;34679;51.436;-2.518;2023-04-24T09:43:32;10.10;;;7.30;;
48859;SDS011;34679;51.436;-2.518;2023-04-24T09:45:59;10.68;;;7.32;;
48859;SDS011;34679;51.436;-2.518;2023-04-24T09:48:35;12.52;;;6.93;;
48859;SDS011;34679;51.436;-2.518;2023-04-24T09:51:03;16.35;;;7.90;;
48859;SDS011;34679;51.436;-2.518;2023-04-24T09:53:31;10.23;;;8.02;;
48859;SDS011;34679;51.436;-2.518;2023-04-24T09:56:15;14.38;;;7.70;;
48859;SDS011;34679;51.436;-2.518;2023-04-24T09:58:41;13.88;;;9.07;;
48859;SDS011;34679;51.436;-2.518;2023-04-24T10:01:07;14.88;;;8.75;;
48859;SDS011;34679;51.436;-2.518;2023-04-24T10:03:33;18.08;;;10.25;;
48859;SDS011;34679;51.436;-2.518;2023-04-24T10:06:00;16.92;;;11.10;;
48859;SDS011;34679;51.436;-2.518;2023-04-24T10:08:26;18.85;;;12.45;;
48859;SDS011;34679;51.436;-2.518;2023-04-24T10:10:59;15.13;;;12.45;;
48859;SDS011;34679;51.436;-2.518;2023-04-24T10:13:25;18.40;;;12.63;;
48859;SDS011;34679;51.436;-2.518;2023-04-24T10:15:51;19.70;;;12.85;;
48859;SDS011;34679;51.436;-2.518;2023-04-24T10:18:17;16.33;;;11.80;;
48859;SDS011;34679;51.436;-2.518;2023-04-24T10:20:43;19.02;;;11.75;;
48859;SDS011;34679;51.436;-2.518;2023-04-24T10:23:10;13.07;;;10.93;;
48859;SDS011;34679;51.436;-2.518;2023-04-24T10:25:37;16.08;;;11.25;;
48859;SDS011;34679;51.436;-2.518;2023-04-24T10:28:03;15.68;;;11.63;;
48859;SDS011;34679;51.436;-2.518;2023-04-24T10:30:31;13.43;;;10.73;;
48859;SDS011;34679;51.436;-2.518;2023-04-24T10:33:01;13.40;;;10.65;;
48859;SDS011;34679;51.436;-2.518;2023-04-24T10:35:30;14.45;;;10.57;;
48859;SDS011;34679;51.436;-2.518;2023-04-24T10:37:59;11.55;;;10.18;;
48859;SDS011;34679;51.436;-2.518;2023-04-24T10:40:34;13.55;;;10.23;;
48859;SDS011;34679;51.436;-2.518;2023-04-24T10:43:04;16.75;;;10.98;;
48859;SDS011;34679;51.436;-2.518;2023-04-24T10:45:33;15.35;;;11.10;;
48859;SDS011;34679;51.436;-2.518;2023-04-24T10:47:59;14.77;;;10.10;;
48859;SDS011;34679;51.436;-2.518;2023-04-24T10:50:28;14.75;;;10.65;;
48859;SDS011;34679;51.436;-2.518;2023-04-24T10:53:04;12.07;;;10.20;;
48859;SDS011;34679;51.436;-2.518;2023-04-24T10:55:42;10.63;;;8.63;;
48859;SDS011;34679;51.436;-2.518;2023-04-24T10:58:10;11.27;;;10.02;;
48859;SDS011;34679;51.436;-2.518;2023-04-24T11:00:37;13.02;;;9.18;;
48859;SDS011;34679;51.436;-2.518;2023-04-24T11:03:24;10.45;;;9.07;;
48859;SDS011;34679;51.436;-2.518;2023-04-24T11:06:01;13.52;;;10.80;;
48859;SDS011;34679;51.436;-2.518;2023-04-24T11:10:58;19.52;;;13.68;;
48859;SDS011;34679;51.436;-2.518;2023-04-24T11:19:03;12.65;;;10.50;;
48859;SDS011;34679;51.436;-2.518;2023-04-24T11:21:46;12.65;;;10.63;;
48859;SDS011;34679;51.436;-2.518;2023-04-24T11:26:58;17.30;;;11.15;;
48859;SDS011;34679;51.436;-2.518;2023-04-24T11:35:01;8.95;;;6.45;;
48859;SDS011;34679;51.436;-2.518;2023-04-24T11:37:30;10.18;;;7.30;;
48859;SDS011;34679;51.436;-2.518;2023-04-24T11:39:58;7.55;;;6.50;;
48859;SDS011;34679;51.436;-2.518;2023-04-24T11:42:24;6.93;;;6.15;;
48859;SDS011;34679;51.436;-2.518;2023-04-24T11:44:54;6.80;;;6.10;;
48859;SDS011;34679;51.436;-2.518;2023-04-24T11:47:28;5.72;;;5.22;;
48859;SDS011;34679;51.436;-2.518;2023-04-24T11:49:55;6.13;;;5.50;;
48859;SDS011;34679;51.436;-2.518;2023-04-24T11:52:20;5.65;;;5.18;;
48859;SDS011;34679;51.436;-2.518;2023-04-24T11:54:49;6.70;;;5.63;;
48859;SDS011;34679;51.436;-2.518;2023-04-24T11:57:16;6.70;;;5.28;;
48859;SDS011;34679;51.436;-2.518;2023-04-24T11:59:46;5.10;;;4.28;;
48859;SDS011;34679;51.436;-2.518;2023-04-24T12:02:22;6.10;;;5.13;;
48859;SDS011;34679;51.436;-2.518;2023-04-24T12:04:52;4.43;;;3.88;;
48859;SDS011;34679;51.436;-2.518;2023-04-24T12:07:18;4.35;;;3.88;;
48859;SDS011;34679;51.436;-2.518;2023-04-24T12:09:45;6.18;;;4.75;;
48859;SDS011;34679;51.436;-2.518;2023-04-24T12:12:13;6.65;;;4.60;;
48859;SDS011;34679;51.436;-2.518;2023-04-24T12:14:50;4.60;;;4.10;;
48859;SDS011;34679;51.436;-2.518;2023-04-24T12:19:59;5.53;;;4.70;;
48859;SDS011;34679;51.436;-2.518;2023-04-24T12:22:27;8.02;;;5.60;;
48859;SDS011;34679;51.436;-2.518;2023-04-24T12:25:03;8.43;;;5.38;;
48859;SDS011;34679;51.436;-2.518;2023-04-24T12:27:31;4.50;;;4.10;;
48859;SDS011;34679;51.436;-2.518;2023-04-24T12:29:58;5.47;;;4.50;;
48859;SDS011;34679;51.436;-2.518;2023-04-24T12:32:25;5.60;;;4.22;;
48859;SDS011;34679;51.436;-2.518;2023-04-24T12:34:52;7.28;;;5.18;;
48859;SDS011;34679;51.436;-2.518;2023-04-24T12:37:18;6.65;;;5.10;;
48859;SDS011;34679;51.436;-2.518;2023-04-24T12:40:30;5.53;;;4.97;;
48859;SDS011;34679;51.436;-2.518;2023-04-24T12:42:32;5.88;;;5.30;;
48859;SDS011;34679;51.436;-2.518;2023-04-24T12:45:05;6.35;;;5.30;;
48859;SDS011;34679;51.436;-2.518;2023-04-24T12:47:32;7.00;;;5.38;;
48859;SDS011;34679;51.436;-2.518;2023-04-24T12:49:59;6.35;;;5.35;;
48859;SDS011;34679;51.436;-2.518;2023-04-24T12:52:26;9.35;;;6.43;;
48859;SDS011;34679;51.436;-2.518;2023-04-24T12:54:53;7.70;;;6.05;;
48859;SDS011;34679;51.436;-2.518;2023-04-24T12:57:20;7.13;;;5.55;;
48859;SDS011;34679;51.436;-2.518;2023-04-24T12:59:46;4.18;;;3.85;;
48859;SDS011;34679;51.436;-2.518;2023-04-24T13:02:12;5.82;;;4.82;;
48859;SDS011;34679;51.436;-2.518;2023-04-24T13:04:46;5.40;;;5.00;;
48859;SDS011;34679;51.436;-2.518;2023-04-24T13:07:12;5.05;;;4.55;;
48859;SDS011;34679;51.436;-2.518;2023-04-24T13:09:39;6.22;;;5.00;;
48859;SDS011;34679;51.436;-2.518;2023-04-24T13:12:06;9.05;;;5.55;;
48859;SDS011;34679;51.436;-2.518;2023-04-24T13:14:33;5.68;;;5.18;;
48859;SDS011;34679;51.436;-2.518;2023-04-24T13:16:59;6.32;;;4.93;;
48859;SDS011;34679;51.436;-2.518;2023-04-24T13:19:25;5.43;;;4.93;;
48859;SDS011;34679;51.436;-2.518;2023-04-24T13:21:52;5.85;;;5.13;;
48859;SDS011;34679;51.436;-2.518;2023-04-24T13:24:25;5.28;;;4.20;;
48859;SDS011;34679;51.436;-2.518;2023-04-24T13:26:51;4.47;;;4.07;;
48859;SDS011;34679;51.436;-2.518;2023-04-24T13:29:17;7.07;;;5.57;;
48859;SDS011;34679;51.436;-2.518;2023-04-24T13:31:43;8.05;;;5.93;;
48859;SDS011;34679;51.436;-2.518;2023-04-24T13:34:09;6.32;;;5.07;;
48859;SDS011;34679;51.436;-2.518;2023-04-24T13:36:35;5.35;;;4.85;;
48859;SDS011;34679;51.436;-2.518;2023-04-24T13:39:02;5.60;;;5.10;;
48859;SDS011;34679;51.436;-2.518;2023-04-24T13:41:29;5.35;;;4.60;;
48859;SDS011;34679;51.436;-2.518;2023-04-24T13:43:55;4.53;;;4.13;;
48859;SDS011;34679;51.436;-2.518;2023-04-24T13:46:21;4.97;;;3.80;;
48859;SDS011;34679;51.436;-2.518;2023-04-24T13:48:47;4.03;;;3.22;;
48859;SDS011;34679;51.436;-2.518;2023-04-24T13:51:12;6.28;;;4.00;;
48859;SDS011;34679;51.436;-2.518;2023-04-24T13:53:38;4.28;;;3.55;;
48859;SDS011;34679;51.436;-2.518;2023-04-24T13:56:04;4.18;;;3.72;;
48859;SDS011;34679;51.436;-2.518;2023-04-24T13:58:31;5.28;;;3.60;;
48859;SDS011;34679;51.436;-2.518;2023-04-24T14:00:57;5.13;;;3.70;;
48859;SDS011;34679;51.436;-2.518;2023-04-24T14:03:23;6.07;;;4.43;;
48859;SDS011;34679;51.436;-2.518;2023-04-24T14:05:49;5.90;;;3.40;;
48859;SDS011;34679;51.436;-2.518;2023-04-24T14:08:14;5.15;;;4.03;;
48859;SDS011;34679;51.436;-2.518;2023-04-24T14:10:40;4.30;;;3.70;;
48859;SDS011;34679;51.436;-2.518;2023-04-24T14:13:07;8.88;;;4.15;;
48859;SDS011;34679;51.436;-2.518;2023-04-24T14:15:35;5.82;;;4.25;;
48859;SDS011;34679;51.436;-2.518;2023-04-24T14:18:00;5.75;;;4.00;;
48859;SDS011;34679;51.436;-2.518;2023-04-24T14:20:26;5.68;;;4.22;;
48859;SDS011;34679;51.436;-2.518;2023-04-24T14:22:52;5.57;;;4.35;;
48859;SDS011;34679;51.436;-2.518;2023-04-24T14:25:18;6.43;;;4.25;;
48859;SDS011;34679;51.436;-2.518;2023-04-24T14:27:44;8.60;;;4.55;;
48859;SDS011;34679;51.436;-2.518;2023-04-24T14:30:10;6.40;;;4.53;;
48859;SDS011;34679;51.436;-2.518;2023-04-24T14:32:37;6.88;;;4.07;;
48859;SDS011;34679;51.436;-2.518;2023-04-24T14:35:04;6.63;;;3.83;;
48859;SDS011;34679;51.436;-2.518;2023-04-24T14:37:31;5.13;;;4.50;;